sensor_id;sensor_type;location;lat;lon;timestamp;P1;durP1;ratioP1;P2;durP2;ratioP2
16440;SDS011;8330;-33.858;151.184;2023-07-13T00:01:25;9.38;;;5.07;;
16440;SDS011;8330;-33.858;151.184;2023-07-13T00:03:59;12.65;;;4.90;;
16440;SDS011;8330;-33.858;151.184;2023-07-13T00:06:30;6.45;;;4.50;;
16440;SDS011;8330;-33.858;151.184;2023-07-13T00:09:02;8.18;;;4.30;;
16440;SDS011;8330;-33.858;151.184;2023-07-13T00:11:36;6.30;;;4.43;;
16440;SDS011;8330;-33.858;151.184;2023-07-13T00:14:08;6.32;;;4.63;;
16440;SDS011;8330;-33.858;151.184;2023-07-13T00:16:39;8.68;;;5.22;;
16440;SDS011;8330;-33.858;151.184;2023-07-13T00:19:11;8.25;;;4.80;;
16440;SDS011;8330;-33.858;151.184;2023-07-13T00:21:43;8.00;;;4.88;;
16440;SDS011;8330;-33.858;151.184;2023-07-13T00:24:15;5.53;;;4.20;;
16440;SDS011;8330;-33.858;151.184;2023-07-13T00:26:53;5.15;;;3.60;;
16440;SDS011;8330;-33.858;151.184;2023-07-13T00:29:25;5.40;;;3.85;;
16440;SDS011;8330;-33.858;151.184;2023-07-13T00:31:56;6.75;;;4.00;;
16440;SDS011;8330;-33.858;151.184;2023-07-13T00:34:28;6.00;;;3.03;;
16440;SDS011;8330;-33.858;151.184;2023-07-13T00:37:00;8.52;;;2.90;;
16440;SDS011;8330;-33.858;151.184;2023-07-13T00:39:32;7.00;;;3.20;;
16440;SDS011;8330;-33.858;151.184;2023-07-13T00:42:07;6.82;;;2.65;;
16440;SDS011;8330;-33.858;151.184;2023-07-13T00:44:38;6.63;;;3.13;;
16440;SDS011;8330;-33.858;151.184;2023-07-13T00:47:12;8.98;;;3.10;;
16440;SDS011;8330;-33.858;151.184;2023-07-13T00:49:46;6.80;;;2.80;;
16440;SDS011;8330;-33.858;151.184;2023-07-13T00:52:17;8.32;;;3.28;;
16440;SDS011;8330;-33.858;151.184;2023-07-13T00:54:48;6.88;;;2.70;;
16440;SDS011;8330;-33.858;151.184;2023-07-13T00:57:22;8.27;;;2.97;;
16440;SDS011;8330;-33.858;151.184;2023-07-13T00:59:54;5.28;;;3.10;;
16440;SDS011;8330;-33.858;151.184;2023-07-13T01:02:31;8.57;;;2.90;;
16440;SDS011;8330;-33.858;151.184;2023-07-13T01:05:05;5.53;;;2.72;;
16440;SDS011;8330;-33.858;151.184;2023-07-13T01:07:42;3.83;;;2.72;;
16440;SDS011;8330;-33.858;151.184;2023-07-13T01:10:15;4.97;;;2.75;;
16440;SDS011;8330;-33.858;151.184;2023-07-13T01:12:50;5.55;;;2.67;;
16440;SDS011;8330;-33.858;151.184;2023-07-13T01:15:34;7.97;;;2.83;;
16440;SDS011;8330;-33.858;151.184;2023-07-13T01:18:06;8.38;;;2.70;;
16440;SDS011;8330;-33.858;151.184;2023-07-13T01:20:40;5.47;;;2.55;;
16440;SDS011;8330;-33.858;151.184;2023-07-13T01:23:20;5.43;;;2.70;;
16440;SDS011;8330;-33.858;151.184;2023-07-13T01:25:52;5.68;;;2.70;;
16440;SDS011;8330;-33.858;151.184;2023-07-13T01:28:26;5.90;;;2.78;;
16440;SDS011;8330;-33.858;151.184;2023-07-13T01:31:03;8.43;;;2.90;;
16440;SDS011;8330;-33.858;151.184;2023-07-13T01:33:35;5.80;;;2.80;;
16440;SDS011;8330;-33.858;151.184;2023-07-13T01:36:10;6.35;;;2.72;;
16440;SDS011;8330;-33.858;151.184;2023-07-13T01:38:41;5.50;;;2.60;;
16440;SDS011;8330;-33.858;151.184;2023-07-13T01:41:18;6.82;;;2.38;;
16440;SDS011;8330;-33.858;151.184;2023-07-13T01:43:52;4.15;;;2.20;;
16440;SDS011;8330;-33.858;151.184;2023-07-13T01:46:24;3.45;;;1.90;;
16440;SDS011;8330;-33.858;151.184;2023-07-13T01:48:56;4.80;;;2.00;;
16440;SDS011;8330;-33.858;151.184;2023-07-13T01:51:31;3.97;;;1.65;;
16440;SDS011;8330;-33.858;151.184;2023-07-13T01:54:02;4.00;;;2.15;;
16440;SDS011;8330;-33.858;151.184;2023-07-13T01:56:33;5.18;;;1.98;;
16440;SDS011;8330;-33.858;151.184;2023-07-13T01:59:06;5.80;;;1.88;;
16440;SDS011;8330;-33.858;151.184;2023-07-13T02:01:38;5.78;;;1.98;;
16440;SDS011;8330;-33.858;151.184;2023-07-13T02:04:10;4.07;;;2.10;;
16440;SDS011;8330;-33.858;151.184;2023-07-13T02:06:44;3.25;;;1.80;;
16440;SDS011;8330;-33.858;151.184;2023-07-13T02:09:15;6.25;;;1.70;;
16440;SDS011;8330;-33.858;151.184;2023-07-13T02:11:50;7.07;;;2.47;;
16440;SDS011;8330;-33.858;151.184;2023-07-13T02:14:22;5.57;;;2.00;;
16440;SDS011;8330;-33.858;151.184;2023-07-13T02:16:54;3.08;;;1.75;;
16440;SDS011;8330;-33.858;151.184;2023-07-13T02:19:25;1.98;;;1.20;;
16440;SDS011;8330;-33.858;151.184;2023-07-13T02:21:58;3.55;;;1.20;;
16440;SDS011;8330;-33.858;151.184;2023-07-13T02:24:30;2.97;;;1.30;;
16440;SDS011;8330;-33.858;151.184;2023-07-13T02:27:05;3.72;;;1.50;;
16440;SDS011;8330;-33.858;151.184;2023-07-13T02:29:38;4.53;;;1.50;;
16440;SDS011;8330;-33.858;151.184;2023-07-13T02:32:10;2.13;;;1.27;;
16440;SDS011;8330;-33.858;151.184;2023-07-13T02:34:43;1.58;;;1.10;;
16440;SDS011;8330;-33.858;151.184;2023-07-13T02:37:18;2.92;;;1.27;;
16440;SDS011;8330;-33.858;151.184;2023-07-13T02:39:50;3.10;;;1.20;;
16440;SDS011;8330;-33.858;151.184;2023-07-13T02:42:21;2.90;;;1.40;;
16440;SDS011;8330;-33.858;151.184;2023-07-13T02:44:53;1.17;;;1.00;;
16440;SDS011;8330;-33.858;151.184;2023-07-13T02:47:26;3.55;;;1.10;;
16440;SDS011;8330;-33.858;151.184;2023-07-13T02:49:58;4.55;;;1.42;;
16440;SDS011;8330;-33.858;151.184;2023-07-13T02:52:32;2.67;;;1.15;;
16440;SDS011;8330;-33.858;151.184;2023-07-13T02:55:03;1.92;;;1.30;;
16440;SDS011;8330;-33.858;151.184;2023-07-13T02:57:35;1.42;;;1.20;;
16440;SDS011;8330;-33.858;151.184;2023-07-13T03:00:07;2.25;;;1.20;;
16440;SDS011;8330;-33.858;151.184;2023-07-13T03:02:40;2.53;;;1.25;;
16440;SDS011;8330;-33.858;151.184;2023-07-13T03:05:12;1.98;;;1.27;;
16440;SDS011;8330;-33.858;151.184;2023-07-13T03:07:49;3.20;;;1.00;;
16440;SDS011;8330;-33.858;151.184;2023-07-13T03:10:21;2.60;;;1.42;;
16440;SDS011;8330;-33.858;151.184;2023-07-13T03:12:55;3.95;;;1.30;;
16440;SDS011;8330;-33.858;151.184;2023-07-13T03:15:26;2.20;;;1.10;;
16440;SDS011;8330;-33.858;151.184;2023-07-13T03:18:01;5.53;;;1.08;;
16440;SDS011;8330;-33.858;151.184;2023-07-13T03:20:33;1.83;;;1.17;;
16440;SDS011;8330;-33.858;151.184;2023-07-13T03:23:12;5.68;;;1.13;;
16440;SDS011;8330;-33.858;151.184;2023-07-13T03:25:43;3.60;;;1.10;;
16440;SDS011;8330;-33.858;151.184;2023-07-13T03:28:16;6.35;;;1.70;;
16440;SDS011;8330;-33.858;151.184;2023-07-13T03:30:47;1.80;;;1.00;;
16440;SDS011;8330;-33.858;151.184;2023-07-13T03:33:20;5.80;;;1.23;;
16440;SDS011;8330;-33.858;151.184;2023-07-13T03:35:51;2.90;;;1.10;;
16440;SDS011;8330;-33.858;151.184;2023-07-13T03:38:27;2.63;;;1.27;;
16440;SDS011;8330;-33.858;151.184;2023-07-13T03:40:59;1.42;;;0.90;;
16440;SDS011;8330;-33.858;151.184;2023-07-13T03:43:32;2.65;;;1.17;;
16440;SDS011;8330;-33.858;151.184;2023-07-13T03:46:03;1.63;;;1.00;;
16440;SDS011;8330;-33.858;151.184;2023-07-13T03:48:35;3.63;;;1.20;;
16440;SDS011;8330;-33.858;151.184;2023-07-13T03:51:09;2.63;;;0.82;;
16440;SDS011;8330;-33.858;151.184;2023-07-13T03:53:43;1.25;;;1.00;;
16440;SDS011;8330;-33.858;151.184;2023-07-13T03:56:14;2.90;;;0.93;;
16440;SDS011;8330;-33.858;151.184;2023-07-13T03:58:49;2.42;;;0.93;;
16440;SDS011;8330;-33.858;151.184;2023-07-13T04:01:20;1.90;;;0.98;;
16440;SDS011;8330;-33.858;151.184;2023-07-13T04:03:53;2.00;;;1.20;;
16440;SDS011;8330;-33.858;151.184;2023-07-13T04:06:26;3.47;;;1.60;;
16440;SDS011;8330;-33.858;151.184;2023-07-13T04:09:02;2.08;;;1.10;;
16440;SDS011;8330;-33.858;151.184;2023-07-13T04:11:35;3.38;;;1.20;;
16440;SDS011;8330;-33.858;151.184;2023-07-13T04:14:07;2.78;;;0.90;;
16440;SDS011;8330;-33.858;151.184;2023-07-13T04:16:40;2.53;;;1.08;;
16440;SDS011;8330;-33.858;151.184;2023-07-13T04:19:13;2.42;;;1.15;;
16440;SDS011;8330;-33.858;151.184;2023-07-13T04:21:44;3.08;;;1.15;;
16440;SDS011;8330;-33.858;151.184;2023-07-13T04:24:20;1.90;;;1.00;;
16440;SDS011;8330;-33.858;151.184;2023-07-13T04:26:53;1.40;;;0.93;;
16440;SDS011;8330;-33.858;151.184;2023-07-13T04:29:25;2.50;;;1.13;;
16440;SDS011;8330;-33.858;151.184;2023-07-13T04:31:57;4.38;;;1.23;;
16440;SDS011;8330;-33.858;151.184;2023-07-13T04:34:31;5.53;;;1.15;;
16440;SDS011;8330;-33.858;151.184;2023-07-13T04:37:04;4.45;;;1.00;;
16440;SDS011;8330;-33.858;151.184;2023-07-13T04:39:39;1.40;;;1.00;;
16440;SDS011;8330;-33.858;151.184;2023-07-13T04:42:13;2.38;;;0.80;;
16440;SDS011;8330;-33.858;151.184;2023-07-13T04:44:47;1.33;;;0.73;;
16440;SDS011;8330;-33.858;151.184;2023-07-13T04:47:19;1.15;;;0.80;;
16440;SDS011;8330;-33.858;151.184;2023-07-13T04:49:53;2.45;;;0.70;;
16440;SDS011;8330;-33.858;151.184;2023-07-13T04:52:27;0.80;;;0.70;;
16440;SDS011;8330;-33.858;151.184;2023-07-13T04:55:02;0.95;;;0.80;;
16440;SDS011;8330;-33.858;151.184;2023-07-13T04:57:35;1.85;;;0.80;;
16440;SDS011;8330;-33.858;151.184;2023-07-13T05:00:08;1.30;;;0.90;;
16440;SDS011;8330;-33.858;151.184;2023-07-13T05:02:43;1.27;;;0.80;;
16440;SDS011;8330;-33.858;151.184;2023-07-13T05:05:17;1.00;;;0.90;;
16440;SDS011;8330;-33.858;151.184;2023-07-13T05:07:48;1.33;;;0.85;;
16440;SDS011;8330;-33.858;151.184;2023-07-13T05:10:24;1.13;;;0.70;;
16440;SDS011;8330;-33.858;151.184;2023-07-13T05:12:57;4.72;;;0.90;;
16440;SDS011;8330;-33.858;151.184;2023-07-13T05:15:30;1.88;;;0.80;;
16440;SDS011;8330;-33.858;151.184;2023-07-13T05:18:05;1.35;;;1.02;;
16440;SDS011;8330;-33.858;151.184;2023-07-13T05:20:38;2.92;;;0.95;;
16440;SDS011;8330;-33.858;151.184;2023-07-13T05:23:10;1.10;;;0.80;;
16440;SDS011;8330;-33.858;151.184;2023-07-13T05:25:43;3.10;;;0.90;;
16440;SDS011;8330;-33.858;151.184;2023-07-13T05:28:15;2.28;;;0.80;;
16440;SDS011;8330;-33.858;151.184;2023-07-13T05:30:47;2.30;;;1.10;;
16440;SDS011;8330;-33.858;151.184;2023-07-13T05:33:20;2.45;;;0.98;;
16440;SDS011;8330;-33.858;151.184;2023-07-13T05:35:54;2.53;;;1.20;;
16440;SDS011;8330;-33.858;151.184;2023-07-13T05:38:28;1.65;;;1.20;;
16440;SDS011;8330;-33.858;151.184;2023-07-13T05:41:04;2.97;;;1.35;;
16440;SDS011;8330;-33.858;151.184;2023-07-13T05:43:35;4.13;;;1.40;;
16440;SDS011;8330;-33.858;151.184;2023-07-13T05:46:14;2.40;;;1.45;;
16440;SDS011;8330;-33.858;151.184;2023-07-13T05:48:46;4.80;;;1.40;;
16440;SDS011;8330;-33.858;151.184;2023-07-13T05:51:21;3.75;;;1.98;;
16440;SDS011;8330;-33.858;151.184;2023-07-13T05:53:53;3.05;;;1.77;;
16440;SDS011;8330;-33.858;151.184;2023-07-13T05:56:28;3.45;;;1.70;;
16440;SDS011;8330;-33.858;151.184;2023-07-13T05:59:00;3.08;;;1.50;;
16440;SDS011;8330;-33.858;151.184;2023-07-13T06:01:31;4.10;;;1.80;;
16440;SDS011;8330;-33.858;151.184;2023-07-13T06:04:04;5.22;;;1.75;;
16440;SDS011;8330;-33.858;151.184;2023-07-13T06:06:35;4.32;;;1.73;;
16440;SDS011;8330;-33.858;151.184;2023-07-13T06:09:09;3.25;;;1.88;;
16440;SDS011;8330;-33.858;151.184;2023-07-13T06:11:45;3.60;;;1.80;;
16440;SDS011;8330;-33.858;151.184;2023-07-13T06:14:17;6.38;;;2.03;;
16440;SDS011;8330;-33.858;151.184;2023-07-13T06:16:50;4.22;;;1.90;;
16440;SDS011;8330;-33.858;151.184;2023-07-13T06:19:23;2.60;;;1.80;;
16440;SDS011;8330;-33.858;151.184;2023-07-13T06:21:55;4.35;;;1.85;;
16440;SDS011;8330;-33.858;151.184;2023-07-13T06:24:27;2.80;;;1.70;;
16440;SDS011;8330;-33.858;151.184;2023-07-13T06:27:02;2.50;;;1.58;;
16440;SDS011;8330;-33.858;151.184;2023-07-13T06:29:33;3.88;;;1.63;;
16440;SDS011;8330;-33.858;151.184;2023-07-13T06:32:06;2.28;;;1.50;;
16440;SDS011;8330;-33.858;151.184;2023-07-13T06:34:39;2.60;;;1.30;;
16440;SDS011;8330;-33.858;151.184;2023-07-13T06:37:11;2.53;;;1.33;;
16440;SDS011;8330;-33.858;151.184;2023-07-13T06:39:43;2.75;;;1.30;;
16440;SDS011;8330;-33.858;151.184;2023-07-13T06:42:18;2.25;;;1.45;;
16440;SDS011;8330;-33.858;151.184;2023-07-13T06:44:50;3.70;;;1.40;;
16440;SDS011;8330;-33.858;151.184;2023-07-13T06:47:22;2.50;;;1.70;;
16440;SDS011;8330;-33.858;151.184;2023-07-13T06:49:56;4.03;;;1.50;;
16440;SDS011;8330;-33.858;151.184;2023-07-13T06:52:29;3.97;;;1.33;;
16440;SDS011;8330;-33.858;151.184;2023-07-13T06:55:01;3.47;;;1.40;;
16440;SDS011;8330;-33.858;151.184;2023-07-13T06:57:37;3.80;;;1.58;;
16440;SDS011;8330;-33.858;151.184;2023-07-13T07:00:08;2.78;;;1.48;;
16440;SDS011;8330;-33.858;151.184;2023-07-13T07:02:41;4.13;;;1.67;;
16440;SDS011;8330;-33.858;151.184;2023-07-13T07:05:13;4.30;;;1.65;;
16440;SDS011;8330;-33.858;151.184;2023-07-13T07:07:48;6.03;;;1.38;;
16440;SDS011;8330;-33.858;151.184;2023-07-13T07:10:19;4.50;;;1.70;;
16440;SDS011;8330;-33.858;151.184;2023-07-13T07:12:54;4.70;;;1.63;;
16440;SDS011;8330;-33.858;151.184;2023-07-13T07:15:25;4.07;;;1.80;;
16440;SDS011;8330;-33.858;151.184;2023-07-13T07:17:57;3.83;;;1.60;;
16440;SDS011;8330;-33.858;151.184;2023-07-13T07:20:29;3.05;;;1.58;;
16440;SDS011;8330;-33.858;151.184;2023-07-13T07:23:02;2.88;;;1.58;;
16440;SDS011;8330;-33.858;151.184;2023-07-13T07:25:34;3.40;;;1.77;;
16440;SDS011;8330;-33.858;151.184;2023-07-13T07:28:11;3.50;;;1.70;;
16440;SDS011;8330;-33.858;151.184;2023-07-13T07:30:45;3.17;;;1.70;;
16440;SDS011;8330;-33.858;151.184;2023-07-13T07:33:17;5.32;;;1.65;;
16440;SDS011;8330;-33.858;151.184;2023-07-13T07:35:49;4.32;;;1.90;;
16440;SDS011;8330;-33.858;151.184;2023-07-13T07:38:21;3.40;;;1.80;;
16440;SDS011;8330;-33.858;151.184;2023-07-13T07:40:53;3.72;;;1.83;;
16440;SDS011;8330;-33.858;151.184;2023-07-13T07:43:27;5.40;;;2.35;;
16440;SDS011;8330;-33.858;151.184;2023-07-13T07:46:02;2.85;;;1.90;;
16440;SDS011;8330;-33.858;151.184;2023-07-13T07:48:35;5.03;;;1.80;;
16440;SDS011;8330;-33.858;151.184;2023-07-13T07:51:06;3.30;;;1.90;;
16440;SDS011;8330;-33.858;151.184;2023-07-13T07:53:40;2.95;;;1.38;;
16440;SDS011;8330;-33.858;151.184;2023-07-13T07:56:11;2.13;;;1.40;;
16440;SDS011;8330;-33.858;151.184;2023-07-13T07:58:46;3.53;;;1.30;;
16440;SDS011;8330;-33.858;151.184;2023-07-13T08:01:18;2.17;;;1.25;;
16440;SDS011;8330;-33.858;151.184;2023-07-13T08:03:49;5.43;;;1.80;;
16440;SDS011;8330;-33.858;151.184;2023-07-13T08:06:21;2.63;;;1.58;;
16440;SDS011;8330;-33.858;151.184;2023-07-13T08:08:52;3.35;;;1.35;;
16440;SDS011;8330;-33.858;151.184;2023-07-13T08:11:25;2.25;;;1.63;;
16440;SDS011;8330;-33.858;151.184;2023-07-13T08:14:03;2.83;;;1.50;;
16440;SDS011;8330;-33.858;151.184;2023-07-13T08:16:35;6.10;;;2.05;;
16440;SDS011;8330;-33.858;151.184;2023-07-13T08:19:10;2.63;;;1.58;;
16440;SDS011;8330;-33.858;151.184;2023-07-13T08:21:42;1.83;;;1.60;;
16440;SDS011;8330;-33.858;151.184;2023-07-13T08:24:15;1.70;;;1.60;;
16440;SDS011;8330;-33.858;151.184;2023-07-13T08:26:48;3.78;;;1.67;;
16440;SDS011;8330;-33.858;151.184;2023-07-13T08:29:24;2.88;;;1.63;;
16440;SDS011;8330;-33.858;151.184;2023-07-13T08:31:58;3.90;;;1.48;;
16440;SDS011;8330;-33.858;151.184;2023-07-13T08:34:32;2.20;;;1.40;;
16440;SDS011;8330;-33.858;151.184;2023-07-13T08:37:06;4.03;;;1.45;;
16440;SDS011;8330;-33.858;151.184;2023-07-13T08:39:41;2.45;;;1.52;;
16440;SDS011;8330;-33.858;151.184;2023-07-13T08:42:15;3.00;;;1.73;;
16440;SDS011;8330;-33.858;151.184;2023-07-13T08:45:01;2.30;;;1.42;;
16440;SDS011;8330;-33.858;151.184;2023-07-13T08:47:39;2.83;;;1.70;;
16440;SDS011;8330;-33.858;151.184;2023-07-13T08:50:15;3.45;;;1.70;;
16440;SDS011;8330;-33.858;151.184;2023-07-13T08:52:50;2.95;;;1.70;;
16440;SDS011;8330;-33.858;151.184;2023-07-13T08:55:22;2.42;;;1.65;;
16440;SDS011;8330;-33.858;151.184;2023-07-13T08:57:59;2.90;;;2.00;;
16440;SDS011;8330;-33.858;151.184;2023-07-13T09:00:38;3.80;;;2.00;;
16440;SDS011;8330;-33.858;151.184;2023-07-13T09:03:19;3.47;;;2.05;;
16440;SDS011;8330;-33.858;151.184;2023-07-13T09:05:53;6.00;;;2.08;;
16440;SDS011;8330;-33.858;151.184;2023-07-13T09:08:32;2.78;;;1.80;;
16440;SDS011;8330;-33.858;151.184;2023-07-13T09:11:16;3.40;;;2.05;;
16440;SDS011;8330;-33.858;151.184;2023-07-13T09:14:00;3.35;;;2.22;;
16440;SDS011;8330;-33.858;151.184;2023-07-13T09:16:45;3.53;;;2.22;;
16440;SDS011;8330;-33.858;151.184;2023-07-13T09:19:19;4.10;;;2.40;;
16440;SDS011;8330;-33.858;151.184;2023-07-13T09:22:00;4.50;;;2.70;;
16440;SDS011;8330;-33.858;151.184;2023-07-13T09:24:36;6.45;;;2.97;;
16440;SDS011;8330;-33.858;151.184;2023-07-13T09:27:15;3.38;;;2.75;;
16440;SDS011;8330;-33.858;151.184;2023-07-13T09:29:54;3.67;;;2.90;;
16440;SDS011;8330;-33.858;151.184;2023-07-13T09:32:35;5.97;;;3.47;;
16440;SDS011;8330;-33.858;151.184;2023-07-13T09:35:11;29.08;;;19.73;;
16440;SDS011;8330;-33.858;151.184;2023-07-13T09:37:44;35.20;;;24.67;;
16440;SDS011;8330;-33.858;151.184;2023-07-13T09:40:18;21.80;;;15.05;;
16440;SDS011;8330;-33.858;151.184;2023-07-13T09:42:54;15.23;;;11.85;;
16440;SDS011;8330;-33.858;151.184;2023-07-13T09:45:28;18.80;;;14.63;;
16440;SDS011;8330;-33.858;151.184;2023-07-13T09:48:03;24.10;;;17.92;;
16440;SDS011;8330;-33.858;151.184;2023-07-13T09:50:38;34.50;;;26.45;;
16440;SDS011;8330;-33.858;151.184;2023-07-13T09:53:12;26.60;;;20.88;;
16440;SDS011;8330;-33.858;151.184;2023-07-13T09:55:45;19.45;;;15.95;;
16440;SDS011;8330;-33.858;151.184;2023-07-13T09:58:18;14.90;;;10.45;;
16440;SDS011;8330;-33.858;151.184;2023-07-13T10:00:54;12.63;;;10.82;;
16440;SDS011;8330;-33.858;151.184;2023-07-13T10:03:28;10.50;;;7.93;;
16440;SDS011;8330;-33.858;151.184;2023-07-13T10:06:09;7.68;;;4.90;;
16440;SDS011;8330;-33.858;151.184;2023-07-13T10:08:44;5.50;;;4.00;;
16440;SDS011;8330;-33.858;151.184;2023-07-13T10:11:18;5.78;;;3.53;;
16440;SDS011;8330;-33.858;151.184;2023-07-13T10:13:52;4.95;;;3.53;;
16440;SDS011;8330;-33.858;151.184;2023-07-13T10:16:26;5.10;;;3.50;;
16440;SDS011;8330;-33.858;151.184;2023-07-13T10:19:14;5.10;;;2.90;;
16440;SDS011;8330;-33.858;151.184;2023-07-13T10:21:52;3.50;;;2.65;;
16440;SDS011;8330;-33.858;151.184;2023-07-13T10:24:26;3.28;;;2.35;;
16440;SDS011;8330;-33.858;151.184;2023-07-13T10:27:01;3.90;;;2.47;;
16440;SDS011;8330;-33.858;151.184;2023-07-13T10:29:45;4.03;;;2.38;;
16440;SDS011;8330;-33.858;151.184;2023-07-13T10:32:19;4.25;;;2.58;;
16440;SDS011;8330;-33.858;151.184;2023-07-13T10:34:56;3.78;;;2.50;;
16440;SDS011;8330;-33.858;151.184;2023-07-13T10:37:33;3.50;;;2.22;;
16440;SDS011;8330;-33.858;151.184;2023-07-13T10:42:46;3.58;;;2.80;;
16440;SDS011;8330;-33.858;151.184;2023-07-13T10:45:21;5.07;;;3.40;;
16440;SDS011;8330;-33.858;151.184;2023-07-13T10:47:55;4.60;;;3.30;;
16440;SDS011;8330;-33.858;151.184;2023-07-13T10:50:31;5.45;;;3.90;;
16440;SDS011;8330;-33.858;151.184;2023-07-13T10:53:17;4.93;;;4.28;;
16440;SDS011;8330;-33.858;151.184;2023-07-13T10:55:55;5.68;;;3.83;;
16440;SDS011;8330;-33.858;151.184;2023-07-13T10:58:34;5.35;;;3.45;;
16440;SDS011;8330;-33.858;151.184;2023-07-13T11:01:08;4.65;;;3.00;;
16440;SDS011;8330;-33.858;151.184;2023-07-13T11:03:48;3.92;;;2.97;;
16440;SDS011;8330;-33.858;151.184;2023-07-13T11:06:32;3.58;;;2.95;;
16440;SDS011;8330;-33.858;151.184;2023-07-13T11:12:07;3.70;;;2.50;;
16440;SDS011;8330;-33.858;151.184;2023-07-13T11:15:01;5.13;;;2.60;;
16440;SDS011;8330;-33.858;151.184;2023-07-13T11:17:36;2.95;;;2.58;;
16440;SDS011;8330;-33.858;151.184;2023-07-13T11:20:22;3.88;;;2.60;;
16440;SDS011;8330;-33.858;151.184;2023-07-13T11:23:16;2.47;;;2.28;;
16440;SDS011;8330;-33.858;151.184;2023-07-13T11:25:50;4.95;;;2.58;;
16440;SDS011;8330;-33.858;151.184;2023-07-13T11:28:23;3.42;;;2.92;;
16440;SDS011;8330;-33.858;151.184;2023-07-13T11:31:13;4.07;;;2.92;;
16440;SDS011;8330;-33.858;151.184;2023-07-13T11:33:49;3.80;;;2.78;;
16440;SDS011;8330;-33.858;151.184;2023-07-13T11:36:30;5.65;;;3.20;;
16440;SDS011;8330;-33.858;151.184;2023-07-13T11:39:17;6.93;;;3.70;;
16440;SDS011;8330;-33.858;151.184;2023-07-13T11:41:51;4.60;;;3.50;;
16440;SDS011;8330;-33.858;151.184;2023-07-13T11:44:25;5.38;;;3.92;;
16440;SDS011;8330;-33.858;151.184;2023-07-13T11:46:58;6.05;;;4.18;;
16440;SDS011;8330;-33.858;151.184;2023-07-13T11:49:42;6.63;;;4.97;;
16440;SDS011;8330;-33.858;151.184;2023-07-13T11:52:14;7.15;;;5.03;;
16440;SDS011;8330;-33.858;151.184;2023-07-13T11:54:51;7.07;;;5.15;;
16440;SDS011;8330;-33.858;151.184;2023-07-13T11:57:24;6.25;;;4.50;;
16440;SDS011;8330;-33.858;151.184;2023-07-13T12:00:00;7.07;;;5.13;;
16440;SDS011;8330;-33.858;151.184;2023-07-13T12:02:33;7.55;;;5.07;;
16440;SDS011;8330;-33.858;151.184;2023-07-13T12:05:09;5.55;;;4.35;;
16440;SDS011;8330;-33.858;151.184;2023-07-13T12:07:42;5.75;;;4.50;;
16440;SDS011;8330;-33.858;151.184;2023-07-13T12:10:22;6.22;;;4.20;;
16440;SDS011;8330;-33.858;151.184;2023-07-13T12:12:56;6.78;;;4.40;;
16440;SDS011;8330;-33.858;151.184;2023-07-13T12:15:37;4.53;;;3.63;;
16440;SDS011;8330;-33.858;151.184;2023-07-13T12:18:13;5.97;;;3.90;;
16440;SDS011;8330;-33.858;151.184;2023-07-13T12:20:47;6.20;;;4.15;;
16440;SDS011;8330;-33.858;151.184;2023-07-13T12:23:21;5.18;;;3.72;;
16440;SDS011;8330;-33.858;151.184;2023-07-13T12:26:01;6.25;;;3.83;;
16440;SDS011;8330;-33.858;151.184;2023-07-13T12:28:43;5.13;;;3.50;;
16440;SDS011;8330;-33.858;151.184;2023-07-13T12:31:31;5.68;;;4.10;;
16440;SDS011;8330;-33.858;151.184;2023-07-13T12:34:10;6.05;;;3.90;;
16440;SDS011;8330;-33.858;151.184;2023-07-13T12:36:46;4.97;;;3.70;;
16440;SDS011;8330;-33.858;151.184;2023-07-13T12:39:20;5.25;;;3.78;;
16440;SDS011;8330;-33.858;151.184;2023-07-13T12:42:09;6.32;;;3.90;;
16440;SDS011;8330;-33.858;151.184;2023-07-13T12:44:51;5.25;;;3.60;;
16440;SDS011;8330;-33.858;151.184;2023-07-13T12:47:41;4.05;;;3.40;;
16440;SDS011;8330;-33.858;151.184;2023-07-13T12:50:16;4.88;;;3.63;;
16440;SDS011;8330;-33.858;151.184;2023-07-13T12:53:01;4.68;;;3.60;;
16440;SDS011;8330;-33.858;151.184;2023-07-13T12:55:42;5.05;;;3.42;;
16440;SDS011;8330;-33.858;151.184;2023-07-13T12:58:25;6.15;;;3.78;;
16440;SDS011;8330;-33.858;151.184;2023-07-13T13:01:12;5.45;;;3.72;;
16440;SDS011;8330;-33.858;151.184;2023-07-13T13:03:53;5.95;;;3.50;;
16440;SDS011;8330;-33.858;151.184;2023-07-13T13:06:26;4.43;;;3.50;;
16440;SDS011;8330;-33.858;151.184;2023-07-13T13:09:05;6.13;;;3.67;;
16440;SDS011;8330;-33.858;151.184;2023-07-13T13:11:41;5.57;;;3.30;;
16440;SDS011;8330;-33.858;151.184;2023-07-13T13:14:30;5.35;;;3.28;;
16440;SDS011;8330;-33.858;151.184;2023-07-13T13:17:07;4.03;;;3.20;;
16440;SDS011;8330;-33.858;151.184;2023-07-13T13:19:53;5.25;;;3.28;;
16440;SDS011;8330;-33.858;151.184;2023-07-13T13:22:32;4.53;;;3.10;;
16440;SDS011;8330;-33.858;151.184;2023-07-13T13:25:06;3.78;;;2.67;;
16440;SDS011;8330;-33.858;151.184;2023-07-13T13:27:44;3.40;;;2.58;;
16440;SDS011;8330;-33.858;151.184;2023-07-13T13:30:35;3.47;;;2.63;;
16440;SDS011;8330;-33.858;151.184;2023-07-13T13:33:13;3.28;;;2.70;;
16440;SDS011;8330;-33.858;151.184;2023-07-13T13:36:00;4.47;;;3.00;;
16440;SDS011;8330;-33.858;151.184;2023-07-13T13:39:04;3.60;;;2.67;;
16440;SDS011;8330;-33.858;151.184;2023-07-13T13:41:52;4.68;;;2.88;;
16440;SDS011;8330;-33.858;151.184;2023-07-13T13:44:27;2.92;;;2.45;;
16440;SDS011;8330;-33.858;151.184;2023-07-13T13:50:51;5.63;;;2.90;;
16440;SDS011;8330;-33.858;151.184;2023-07-13T13:53:28;3.58;;;2.80;;
16440;SDS011;8330;-33.858;151.184;2023-07-13T13:56:12;4.00;;;3.00;;
16440;SDS011;8330;-33.858;151.184;2023-07-13T13:59:02;4.85;;;2.90;;
16440;SDS011;8330;-33.858;151.184;2023-07-13T14:01:48;3.47;;;2.75;;
16440;SDS011;8330;-33.858;151.184;2023-07-13T14:04:29;6.22;;;3.20;;
16440;SDS011;8330;-33.858;151.184;2023-07-13T14:07:16;3.15;;;2.45;;
16440;SDS011;8330;-33.858;151.184;2023-07-13T14:09:56;3.55;;;2.78;;
16440;SDS011;8330;-33.858;151.184;2023-07-13T14:12:39;3.63;;;2.70;;
16440;SDS011;8330;-33.858;151.184;2023-07-13T14:15:13;4.38;;;2.60;;
16440;SDS011;8330;-33.858;151.184;2023-07-13T14:17:47;3.40;;;2.15;;
16440;SDS011;8330;-33.858;151.184;2023-07-13T14:20:18;4.50;;;2.60;;
16440;SDS011;8330;-33.858;151.184;2023-07-13T14:22:53;2.88;;;2.38;;
16440;SDS011;8330;-33.858;151.184;2023-07-13T14:25:25;3.85;;;2.40;;
16440;SDS011;8330;-33.858;151.184;2023-07-13T14:27:57;3.35;;;2.53;;
16440;SDS011;8330;-33.858;151.184;2023-07-13T14:30:34;3.08;;;2.38;;
16440;SDS011;8330;-33.858;151.184;2023-07-13T14:33:08;3.15;;;2.55;;
16440;SDS011;8330;-33.858;151.184;2023-07-13T14:35:41;3.30;;;2.35;;
16440;SDS011;8330;-33.858;151.184;2023-07-13T14:38:17;3.72;;;2.65;;
16440;SDS011;8330;-33.858;151.184;2023-07-13T14:40:51;3.85;;;2.35;;
16440;SDS011;8330;-33.858;151.184;2023-07-13T14:43:22;3.13;;;2.30;;
16440;SDS011;8330;-33.858;151.184;2023-07-13T14:45:55;2.67;;;2.35;;
16440;SDS011;8330;-33.858;151.184;2023-07-13T14:48:26;3.28;;;2.10;;
16440;SDS011;8330;-33.858;151.184;2023-07-13T14:50:59;2.65;;;2.00;;
16440;SDS011;8330;-33.858;151.184;2023-07-13T14:53:37;2.67;;;2.05;;
16440;SDS011;8330;-33.858;151.184;2023-07-13T14:56:10;2.42;;;1.58;;
16440;SDS011;8330;-33.858;151.184;2023-07-13T14:58:44;2.20;;;1.70;;
16440;SDS011;8330;-33.858;151.184;2023-07-13T15:01:16;2.40;;;1.60;;
16440;SDS011;8330;-33.858;151.184;2023-07-13T15:03:50;1.77;;;1.60;;
16440;SDS011;8330;-33.858;151.184;2023-07-13T15:06:22;4.07;;;1.90;;
16440;SDS011;8330;-33.858;151.184;2023-07-13T15:08:58;2.75;;;1.52;;
16440;SDS011;8330;-33.858;151.184;2023-07-13T15:11:30;1.95;;;1.50;;
16440;SDS011;8330;-33.858;151.184;2023-07-13T15:14:02;2.70;;;1.60;;
16440;SDS011;8330;-33.858;151.184;2023-07-13T15:16:34;4.75;;;1.60;;